createdAt,value
2022-09-07T00:01:22.811Z,2.10
2022-09-07T00:05:25.037Z,2.00
2022-09-07T00:09:27.188Z,1.80
2022-09-07T00:13:32.211Z,1.98
2022-09-07T00:17:34.727Z,1.90
2022-09-07T00:21:37.065Z,1.95
2022-09-07T00:25:40.410Z,2.20
2022-09-07T00:29:42.555Z,2.57
2022-09-07T00:33:45.655Z,1.77
2022-09-07T00:37:47.767Z,1.58
2022-09-07T00:41:49.892Z,1.88
2022-09-07T00:45:52.096Z,1.70
2022-09-07T00:50:00.611Z,1.70
2022-09-07T00:54:33.060Z,1.73
2022-09-07T00:58:37.429Z,1.80
2022-09-07T01:02:40.276Z,2.20
2022-09-07T01:06:43.519Z,1.70
2022-09-07T01:10:46.929Z,2.00
2022-09-07T01:14:57.672Z,1.75
2022-09-07T01:19:36.113Z,1.67
2022-09-07T01:24:02.494Z,1.90
2022-09-07T01:28:41.133Z,1.63
2022-09-07T01:33:19.941Z,1.75
2022-09-07T01:37:36.779Z,1.98
2022-09-07T01:41:47.168Z,1.95
2022-09-07T01:45:51.718Z,2.30
2022-09-07T01:50:09.255Z,2.03
2022-09-07T01:54:18.539Z,1.73
2022-09-07T01:58:26.579Z,2.05
2022-09-07T02:02:33.338Z,1.92
2022-09-07T02:06:54.109Z,2.00
2022-09-07T02:11:14.715Z,2.10
2022-09-07T02:15:41.840Z,2.33
2022-09-07T02:19:54.801Z,2.15
2022-09-07T02:24:06.424Z,3.08
2022-09-07T02:28:12.777Z,2.70
2022-09-07T02:32:14.981Z,2.10
2022-09-07T02:36:21.955Z,2.05
2022-09-07T02:40:24.128Z,2.40
2022-09-07T02:44:32.541Z,2.13
2022-09-07T02:49:00.666Z,2.45
2022-09-07T02:53:27.964Z,2.20
2022-09-07T02:58:12.466Z,2.10
2022-09-07T03:02:28.901Z,2.35
2022-09-07T03:06:37.009Z,2.17
2022-09-07T03:10:40.359Z,1.90
2022-09-07T03:14:43.681Z,2.27
2022-09-07T03:18:45.748Z,2.47
2022-09-07T03:22:49.752Z,1.88
2022-09-07T03:26:52.002Z,1.73
2022-09-07T03:30:54.123Z,1.77
2022-09-07T03:34:56.315Z,2.05
2022-09-07T03:38:59.424Z,1.90
2022-09-07T03:43:01.602Z,2.00
2022-09-07T03:47:03.700Z,2.03
2022-09-07T03:51:11.025Z,2.20
2022-09-07T03:55:14.893Z,1.73
2022-09-07T03:59:16.957Z,2.03
2022-09-07T04:03:19.102Z,1.88
2022-09-07T04:07:21.294Z,2.10
2022-09-07T04:11:23.763Z,1.92
2022-09-07T04:15:25.942Z,2.22
2022-09-07T04:19:29.237Z,1.90
2022-09-07T04:23:52.243Z,2.30
2022-09-07T04:27:59.086Z,1.83
2022-09-07T04:32:01.277Z,1.58
2022-09-07T04:36:04.043Z,2.10
2022-09-07T04:40:06.633Z,1.80
2022-09-07T04:44:13.609Z,2.75
2022-09-07T04:48:18.284Z,1.70
2022-09-07T04:52:23.771Z,2.00
2022-09-07T04:56:26.609Z,1.70
2022-09-07T05:00:29.065Z,1.80
2022-09-07T05:04:31.233Z,1.98
2022-09-07T05:08:44.834Z,1.90
2022-09-07T05:12:47.243Z,1.83
2022-09-07T05:16:49.687Z,1.52
2022-09-07T05:20:51.770Z,1.60
2022-09-07T05:24:53.790Z,1.92
2022-09-07T05:37:58.684Z,1.83
2022-09-07T05:42:00.949Z,2.05
2022-09-07T05:46:03.255Z,2.20
2022-09-07T05:50:06.764Z,2.15
2022-09-07T05:54:10.959Z,1.90
2022-09-07T06:02:15.966Z,2.13
2022-09-07T06:06:21.769Z,1.73
2022-09-07T06:14:46.588Z,1.80
2022-09-07T06:18:50.394Z,2.00
2022-09-07T06:22:52.499Z,2.13
2022-09-07T06:26:54.741Z,2.03
2022-09-07T06:31:04.983Z,2.03
2022-09-07T06:35:07.405Z,1.95
2022-09-07T06:39:10.260Z,1.80
2022-09-07T06:43:27.221Z,1.63
2022-09-07T06:47:33.045Z,1.67
2022-09-07T06:51:35.091Z,1.67
2022-09-07T06:55:44.117Z,1.73
2022-09-07T06:59:46.184Z,1.73
2022-09-07T07:03:48.394Z,1.60
2022-09-07T07:07:50.453Z,1.98
2022-09-07T07:11:52.504Z,1.42
2022-09-07T07:16:05.232Z,1.27
2022-09-07T07:20:08.079Z,1.65
2022-09-07T07:24:10.271Z,1.80
2022-09-07T07:32:34.618Z,1.88
2022-09-07T07:36:36.714Z,1.50
2022-09-07T07:40:39.788Z,1.52
2022-09-07T07:44:42.128Z,2.13
2022-09-07T07:48:48.246Z,1.60
2022-09-07T07:52:50.657Z,1.33
2022-09-07T07:57:12.495Z,1.30
2022-09-07T08:01:18.129Z,1.60
2022-09-07T08:05:20.246Z,1.17
2022-09-07T08:09:22.359Z,1.10
2022-09-07T08:13:24.449Z,1.65
2022-09-07T08:17:26.819Z,1.35
2022-09-07T08:21:28.802Z,1.55
2022-09-07T08:25:30.840Z,1.60
2022-09-07T08:29:35.222Z,1.30
2022-09-07T08:33:38.468Z,1.27
2022-09-07T08:37:40.699Z,1.10
2022-09-07T08:41:42.680Z,1.42
2022-09-07T08:45:49.241Z,1.20
2022-09-07T08:50:07.186Z,1.80
2022-09-07T08:54:14.254Z,1.38
2022-09-07T08:58:52.766Z,2.15
2022-09-07T09:08:18.662Z,1.73
2022-09-07T09:12:52.296Z,2.03
2022-09-07T09:17:00.303Z,1.27
2022-09-07T09:21:02.626Z,1.40
2022-09-07T09:25:21.551Z,1.63
2022-09-07T09:29:23.709Z,1.63
2022-09-07T09:33:29.065Z,1.55
2022-09-07T09:37:36.431Z,1.83
2022-09-07T09:41:39.389Z,1.98
2022-09-07T09:54:52.239Z,2.85
2022-09-07T10:03:59.382Z,2.35
2022-09-07T10:08:20.865Z,1.90
2022-09-07T10:12:30.051Z,2.40
2022-09-07T10:16:40.418Z,2.13
2022-09-07T10:20:42.421Z,2.20
2022-09-07T10:24:44.860Z,2.00
2022-09-07T10:38:25.373Z,2.10
2022-09-07T10:42:40.067Z,2.40
2022-09-07T10:46:57.031Z,2.20
2022-09-07T10:51:13.383Z,2.22
2022-09-07T10:55:28.037Z,2.22
2022-09-07T11:04:17.195Z,2.42
2022-09-07T11:09:14.959Z,2.72
2022-09-07T11:13:00.328Z,2.15
2022-09-07T11:17:08.329Z,3.35
2022-09-07T11:21:56.022Z,2.08
2022-09-07T11:25:59.025Z,2.65
2022-09-07T11:30:13.879Z,2.67
2022-09-07T11:34:25.880Z,3.20
2022-09-07T11:38:28.105Z,2.60
2022-09-07T11:42:43.893Z,2.10
2022-09-07T11:47:00.291Z,2.33
2022-09-07T11:51:23.454Z,2.35
2022-09-07T11:55:39.926Z,2.20
2022-09-07T11:59:54.375Z,2.72
2022-09-07T12:04:25.850Z,1.88
2022-09-07T12:08:49.523Z,2.38
2022-09-07T12:13:28.497Z,2.13
2022-09-07T12:18:04.630Z,3.25
2022-09-07T12:22:21.472Z,2.50
2022-09-07T12:26:38.100Z,2.08
2022-09-07T12:30:41.866Z,2.28
2022-09-07T12:34:58.061Z,2.40
2022-09-07T12:39:06.290Z,2.50
2022-09-07T12:43:14.553Z,3.15
2022-09-07T12:47:16.647Z,2.20
2022-09-07T12:56:16.543Z,2.30
2022-09-07T13:00:25.526Z,2.13
2022-09-07T13:04:58.330Z,2.80
2022-09-07T13:09:18.507Z,2.25
2022-09-07T13:17:56.440Z,2.58
2022-09-07T13:21:58.743Z,2.50
2022-09-07T13:26:02.466Z,2.30
2022-09-07T13:30:16.675Z,1.80
2022-09-07T13:34:34.323Z,3.25
2022-09-07T13:38:40.551Z,2.55
2022-09-07T13:42:45.106Z,3.20
2022-09-07T13:47:21.063Z,2.40
2022-09-07T13:51:32.042Z,2.67
2022-09-07T13:55:44.250Z,1.90
2022-09-07T13:59:50.365Z,2.40
2022-09-07T14:03:55.896Z,2.10
2022-09-07T14:07:58.116Z,1.92
2022-09-07T14:12:00.981Z,1.85
2022-09-07T14:16:03.411Z,2.42
2022-09-07T14:24:27.805Z,1.98
2022-09-07T14:28:32.406Z,1.65
2022-09-07T14:32:34.506Z,2.42
2022-09-07T14:36:45.769Z,2.33
2022-09-07T14:40:48.638Z,2.28
2022-09-07T14:44:53.362Z,1.90
2022-09-07T14:49:01.795Z,2.20
2022-09-07T14:57:32.655Z,2.30
2022-09-07T15:01:38.919Z,1.70
2022-09-07T15:05:48.781Z,2.00
2022-09-07T15:09:50.922Z,2.83
2022-09-07T15:14:19.738Z,2.38
2022-09-07T15:18:47.610Z,2.25
2022-09-07T15:22:49.603Z,2.65
2022-09-07T15:27:02.461Z,2.80
2022-09-07T15:35:36.668Z,1.90
2022-09-07T15:40:11.675Z,3.28
2022-09-07T15:44:15.238Z,4.53
2022-09-07T15:48:22.431Z,3.28
2022-09-07T15:52:24.755Z,2.50
2022-09-07T15:56:29.101Z,3.53
2022-09-07T16:00:34.298Z,2.35
2022-09-07T16:04:38.833Z,2.35
2022-09-07T16:08:41.455Z,2.67
2022-09-07T16:13:01.998Z,2.70
2022-09-07T16:21:28.029Z,2.77
2022-09-07T16:25:30.048Z,2.15
2022-09-07T16:29:36.717Z,2.33
2022-09-07T16:33:38.932Z,2.28
2022-09-07T16:38:43.615Z,2.33
2022-09-07T16:42:03.358Z,2.60
2022-09-07T16:46:08.489Z,3.13
2022-09-07T16:50:10.575Z,2.60
2022-09-07T16:54:13.922Z,2.95
2022-09-07T17:02:37.916Z,2.75
2022-09-07T17:06:40.690Z,2.97
2022-09-07T17:10:42.936Z,2.70
2022-09-07T17:14:44.884Z,3.00
2022-09-07T17:23:09.875Z,3.00
2022-09-07T17:27:13.346Z,3.75
2022-09-07T17:35:41.954Z,2.78
2022-09-07T17:39:44.543Z,3.70
2022-09-07T17:43:48.429Z,3.40
2022-09-07T17:51:52.466Z,3.22
2022-09-07T17:55:54.650Z,2.75
2022-09-07T18:00:12.407Z,2.95
2022-09-07T18:04:15.213Z,3.25
2022-09-07T18:08:17.266Z,3.00
2022-09-07T18:12:19.264Z,3.05
2022-09-07T18:16:24.712Z,3.30
2022-09-07T18:20:26.990Z,2.97
2022-09-07T18:24:29.104Z,3.53
2022-09-07T18:32:58.349Z,3.13
2022-09-07T18:37:01.627Z,3.30
2022-09-07T18:41:09.408Z,3.35
2022-09-07T18:45:27.527Z,3.97
2022-09-07T18:49:30.063Z,3.83
2022-09-07T18:53:32.939Z,4.07
2022-09-07T18:57:36.560Z,4.10
2022-09-07T19:01:39.298Z,3.95
2022-09-07T19:05:56.962Z,4.13
2022-09-07T19:09:59.096Z,4.38
2022-09-07T19:14:05.630Z,4.22
2022-09-07T19:18:08.100Z,3.83
2022-09-07T19:22:11.701Z,3.58
2022-09-07T19:26:14.901Z,3.78
2022-09-07T19:30:17.796Z,3.35
2022-09-07T19:34:20.739Z,3.30
2022-09-07T19:38:23.247Z,3.10
2022-09-07T19:42:25.720Z,3.42
2022-09-07T19:46:27.966Z,3.20
2022-09-07T19:50:32.426Z,3.53
2022-09-07T19:54:36.354Z,3.95
2022-09-07T20:02:42.117Z,3.10
2022-09-07T20:06:44.423Z,3.65
2022-09-07T20:10:46.666Z,3.40
2022-09-07T20:14:49.036Z,2.95
2022-09-07T20:18:52.099Z,3.47
2022-09-07T20:22:54.530Z,3.53
2022-09-07T20:26:56.555Z,3.65
2022-09-07T20:30:58.624Z,3.20
2022-09-07T20:35:01.807Z,3.72
2022-09-07T20:39:04.719Z,3.78
2022-09-07T20:43:06.822Z,4.32
2022-09-07T20:47:08.880Z,3.38
2022-09-07T20:51:16.015Z,3.03
2022-09-07T20:55:20.813Z,4.10
2022-09-07T20:59:24.110Z,3.93
2022-09-07T21:03:26.744Z,3.10
2022-09-07T21:07:28.959Z,4.07
2022-09-07T21:11:35.503Z,4.10
2022-09-07T21:15:43.113Z,3.80
2022-09-07T21:19:45.458Z,3.65
2022-09-07T21:23:48.171Z,3.72
2022-09-07T21:27:50.681Z,4.05
2022-09-07T21:31:54.345Z,3.70
2022-09-07T21:35:56.787Z,3.40
2022-09-07T21:39:58.873Z,3.65
2022-09-07T21:44:03.455Z,3.72
2022-09-07T21:48:05.859Z,3.85
2022-09-07T21:52:08.579Z,3.33
2022-09-07T21:56:13.401Z,3.60
2022-09-07T22:00:16.333Z,3.22
2022-09-07T22:04:18.616Z,3.38
2022-09-07T22:08:20.843Z,4.18
2022-09-07T22:12:22.826Z,3.40
2022-09-07T22:16:25.380Z,3.72
2022-09-07T22:20:27.370Z,3.75
2022-09-07T22:24:29.815Z,3.90
2022-09-07T22:28:32.456Z,3.42
2022-09-07T22:32:34.433Z,3.80
2022-09-07T22:36:39.819Z,3.90
2022-09-07T22:40:42.227Z,3.53
2022-09-07T22:44:44.225Z,3.70
2022-09-07T22:48:46.955Z,3.40
2022-09-07T22:52:49.069Z,3.78
2022-09-07T22:56:51.049Z,4.10
2022-09-07T23:00:53.189Z,3.90
2022-09-07T23:04:57.225Z,3.80
2022-09-07T23:09:03.541Z,3.80
2022-09-07T23:13:05.579Z,3.80
2022-09-07T23:17:07.678Z,3.75
2022-09-07T23:21:10.450Z,4.75
2022-09-07T23:25:13.063Z,3.60
2022-09-07T23:29:16.002Z,3.53
2022-09-07T23:33:18.388Z,4.13
2022-09-07T23:37:20.521Z,3.63
2022-09-07T23:41:23.581Z,3.80
2022-09-07T23:45:25.727Z,4.53
2022-09-07T23:49:28.062Z,4.28
2022-09-07T23:53:30.046Z,3.50
2022-09-07T23:57:32.370Z,3.75
